createdAt,value
2022-11-09T00:00:46.637Z,13.40
2022-11-09T00:03:14.843Z,13.40
2022-11-09T00:05:42.765Z,13.50
2022-11-09T00:08:10.938Z,13.50
2022-11-09T00:10:38.786Z,13.40
2022-11-09T00:13:10.949Z,13.40
2022-11-09T00:15:39.188Z,13.40
2022-11-09T00:18:07.453Z,13.40
2022-11-09T00:20:36.574Z,13.50
2022-11-09T00:23:04.537Z,13.50
2022-11-09T00:25:32.087Z,13.50
2022-11-09T00:28:00.484Z,13.50
2022-11-09T00:30:28.220Z,13.50
2022-11-09T00:33:02.326Z,13.60
2022-11-09T00:35:29.965Z,13.60
2022-11-09T00:37:59.445Z,13.70
2022-11-09T00:40:27.635Z,13.70
2022-11-09T00:42:55.151Z,13.70
2022-11-09T00:45:23.118Z,13.70
2022-11-09T00:47:50.999Z,13.70
2022-11-09T00:50:18.798Z,13.70
2022-11-09T00:52:48.596Z,13.60
2022-11-09T00:55:16.836Z,13.60
2022-11-09T00:57:44.549Z,13.60
2022-11-09T01:00:13.835Z,13.60
2022-11-09T01:02:41.857Z,13.50
2022-11-09T01:05:14.087Z,13.60
2022-11-09T01:07:42.811Z,13.50
2022-11-09T01:10:12.289Z,13.50
2022-11-09T01:12:40.557Z,13.50
2022-11-09T01:15:09.145Z,13.50
2022-11-09T01:17:49.605Z,13.50
2022-11-09T01:20:18.476Z,13.50
2022-11-09T01:22:46.252Z,13.50
2022-11-09T01:25:15.542Z,13.50
2022-11-09T01:27:43.867Z,13.50
2022-11-09T01:30:12.640Z,13.50
2022-11-09T01:32:40.646Z,13.50
2022-11-09T01:35:08.585Z,13.50
2022-11-09T01:37:37.623Z,13.50
2022-11-09T01:40:05.941Z,13.50
2022-11-09T01:42:36.234Z,13.40
2022-11-09T01:45:17.516Z,13.40
2022-11-09T01:47:59.186Z,13.40
2022-11-09T01:50:45.234Z,13.40
2022-11-09T01:53:19.253Z,13.30
2022-11-09T01:55:48.836Z,13.30
2022-11-09T01:58:21.064Z,13.20
2022-11-09T02:00:49.693Z,13.20
2022-11-09T02:03:21.786Z,13.30
2022-11-09T02:05:49.903Z,13.30
2022-11-09T02:08:19.304Z,13.30
2022-11-09T02:10:51.502Z,13.30
2022-11-09T02:13:21.116Z,13.30
2022-11-09T02:15:50.296Z,13.30
2022-11-09T02:18:22.716Z,13.20
2022-11-09T02:20:58.684Z,13.20
2022-11-09T02:23:27.389Z,13.20
2022-11-09T02:25:58.491Z,13.20
2022-11-09T02:28:27.622Z,13.10
2022-11-09T02:30:56.415Z,13.10
2022-11-09T02:33:24.747Z,13.00
2022-11-09T02:35:53.054Z,13.00
2022-11-09T02:38:22.182Z,13.00
2022-11-09T02:40:53.927Z,13.00
2022-11-09T02:43:22.147Z,13.00
2022-11-09T02:45:50.784Z,12.90
2022-11-09T02:48:18.488Z,12.90
2022-11-09T02:50:47.228Z,12.90
2022-11-09T02:53:16.460Z,12.90
2022-11-09T02:55:46.038Z,12.90
2022-11-09T02:58:15.085Z,13.00
2022-11-09T03:00:50.398Z,13.00
2022-11-09T03:03:54.444Z,13.00
2022-11-09T03:06:34.833Z,13.00
2022-11-09T03:09:07.917Z,13.10
2022-11-09T03:11:35.994Z,13.10
2022-11-09T03:14:09.828Z,13.10
2022-11-09T03:16:39.835Z,13.10
2022-11-09T03:19:08.266Z,13.00
2022-11-09T03:21:36.122Z,13.00
2022-11-09T03:24:03.739Z,13.00
2022-11-09T03:26:31.595Z,13.00
2022-11-09T03:28:59.498Z,13.00
2022-11-09T03:31:28.072Z,13.00
2022-11-09T03:33:57.015Z,13.00
2022-11-09T03:36:24.687Z,13.00
2022-11-09T03:38:53.359Z,12.90
2022-11-09T03:41:21.470Z,12.90
2022-11-09T03:43:49.596Z,13.00
2022-11-09T03:46:17.411Z,13.00
2022-11-09T03:48:51.850Z,12.90
2022-11-09T03:51:26.734Z,12.90
2022-11-09T03:53:54.427Z,12.90
2022-11-09T03:56:23.070Z,12.80
2022-11-09T03:58:51.323Z,12.80
2022-11-09T04:01:19.149Z,12.80
2022-11-09T04:03:47.175Z,12.70
2022-11-09T04:06:14.710Z,12.70
2022-11-09T04:08:47.012Z,12.70
2022-11-09T04:11:20.527Z,12.70
2022-11-09T04:13:48.506Z,12.70
2022-11-09T04:16:16.626Z,12.70
2022-11-09T04:18:44.547Z,12.70
2022-11-09T04:21:12.461Z,12.70
2022-11-09T04:23:40.984Z,12.70
2022-11-09T04:26:08.735Z,12.80
2022-11-09T04:28:36.333Z,12.80
2022-11-09T04:31:04.408Z,12.80
2022-11-09T04:33:31.917Z,12.80
2022-11-09T04:36:03.811Z,12.90
2022-11-09T04:38:32.324Z,12.90
2022-11-09T04:41:00.607Z,12.90
2022-11-09T04:43:28.600Z,12.90
2022-11-09T04:45:59.063Z,12.90
2022-11-09T04:48:27.613Z,12.90
2022-11-09T04:51:11.040Z,12.90
2022-11-09T04:53:45.598Z,12.90
2022-11-09T04:56:24.479Z,12.90
2022-11-09T04:58:58.569Z,12.90
2022-11-09T05:01:26.389Z,12.90
2022-11-09T05:03:54.357Z,12.90
2022-11-09T05:06:34.058Z,13.00
2022-11-09T05:09:06.964Z,13.00
2022-11-09T05:11:38.416Z,13.00
2022-11-09T05:14:06.101Z,13.00
2022-11-09T05:16:34.090Z,13.00
2022-11-09T05:19:01.896Z,13.00
2022-11-09T05:21:30.049Z,13.00
2022-11-09T05:24:00.674Z,13.00
2022-11-09T05:26:34.942Z,13.00
2022-11-09T05:29:12.651Z,13.00
2022-11-09T05:31:51.773Z,13.00
2022-11-09T05:34:20.228Z,13.00
2022-11-09T05:36:47.886Z,13.00
2022-11-09T05:39:15.344Z,13.00
2022-11-09T05:41:47.087Z,12.90
2022-11-09T05:44:15.592Z,12.90
2022-11-09T05:46:43.642Z,12.90
2022-11-09T05:49:19.798Z,12.80
2022-11-09T05:51:47.873Z,12.80
2022-11-09T05:54:15.413Z,12.80
2022-11-09T05:56:43.533Z,12.80
2022-11-09T05:59:11.131Z,12.70
2022-11-09T06:01:39.745Z,12.70
2022-11-09T06:04:07.821Z,12.70
2022-11-09T06:06:36.041Z,12.80
2022-11-09T06:09:03.863Z,12.80
2022-11-09T06:11:32.131Z,12.80
2022-11-09T06:14:00.888Z,12.70
2022-11-09T06:16:32.311Z,12.80
2022-11-09T06:19:01.166Z,12.80
2022-11-09T06:21:29.040Z,12.80
2022-11-09T06:23:57.058Z,12.70
2022-11-09T06:26:25.097Z,12.80
2022-11-09T06:28:52.633Z,12.70
2022-11-09T06:31:20.802Z,12.80
2022-11-09T06:33:49.650Z,12.70
2022-11-09T06:36:18.079Z,12.70
2022-11-09T06:38:48.978Z,12.60
2022-11-09T06:41:20.531Z,12.70
2022-11-09T06:43:50.389Z,12.70
2022-11-09T06:46:18.184Z,12.70
2022-11-09T06:48:54.615Z,12.70
2022-11-09T06:51:22.375Z,12.80
2022-11-09T06:53:56.329Z,12.80
2022-11-09T06:56:24.711Z,12.90
2022-11-09T06:58:52.548Z,12.90
2022-11-09T07:01:27.035Z,12.90
2022-11-09T07:04:01.434Z,12.90
2022-11-09T07:06:35.254Z,12.90
2022-11-09T07:09:10.600Z,12.90
2022-11-09T07:11:38.843Z,13.00
2022-11-09T07:14:06.335Z,13.00
2022-11-09T07:16:34.024Z,13.20
2022-11-09T07:19:01.395Z,13.10
2022-11-09T07:21:28.750Z,13.20
2022-11-09T07:23:56.086Z,13.20
2022-11-09T07:26:23.388Z,13.30
2022-11-09T07:28:50.718Z,13.40
2022-11-09T07:31:18.362Z,13.30
2022-11-09T07:33:45.624Z,13.40
2022-11-09T07:36:16.857Z,13.50
2022-11-09T07:38:47.561Z,13.40
2022-11-09T07:41:14.817Z,13.50
2022-11-09T07:43:42.337Z,13.50
2022-11-09T07:46:09.960Z,13.60
2022-11-09T07:48:37.711Z,13.70
2022-11-09T07:51:04.995Z,13.80
2022-11-09T07:53:32.636Z,13.80
2022-11-09T07:56:01.344Z,13.90
2022-11-09T07:58:28.634Z,13.90
2022-11-09T08:00:56.362Z,13.90
2022-11-09T08:03:24.494Z,14.00
2022-11-09T08:05:51.858Z,14.10
2022-11-09T08:08:19.889Z,14.00
2022-11-09T08:10:51.455Z,14.10
2022-11-09T08:13:19.964Z,14.20
2022-11-09T08:15:47.860Z,14.20
2022-11-09T08:18:16.722Z,14.20
2022-11-09T08:20:44.413Z,14.30
2022-11-09T08:23:16.171Z,14.30
2022-11-09T08:25:43.846Z,14.30
2022-11-09T08:28:14.768Z,14.40
2022-11-09T08:30:43.811Z,14.40
2022-11-09T08:33:14.438Z,14.40
2022-11-09T08:35:41.769Z,14.40
2022-11-09T08:38:09.618Z,14.50
2022-11-09T08:40:38.055Z,14.50
2022-11-09T08:43:06.765Z,14.50
2022-11-09T08:45:35.871Z,14.40
2022-11-09T08:48:05.645Z,14.50
2022-11-09T08:50:33.892Z,14.50
2022-11-09T08:53:01.936Z,14.50
2022-11-09T08:55:29.596Z,14.50
2022-11-09T08:57:58.002Z,14.60
2022-11-09T09:00:25.977Z,14.70
2022-11-09T09:02:53.708Z,14.80
2022-11-09T09:05:21.094Z,14.80
2022-11-09T09:07:48.537Z,14.80
2022-11-09T09:10:16.220Z,14.80
2022-11-09T09:12:43.579Z,14.80
2022-11-09T09:15:10.892Z,14.80
2022-11-09T09:17:38.648Z,14.90
2022-11-09T09:20:06.168Z,15.00
2022-11-09T09:22:33.644Z,15.00
2022-11-09T09:25:01.018Z,15.10
2022-11-09T09:27:31.461Z,15.10
2022-11-09T09:29:58.834Z,15.20
2022-11-09T09:32:26.388Z,15.10
2022-11-09T09:34:53.786Z,15.00
2022-11-09T09:37:21.777Z,14.90
2022-11-09T09:39:49.080Z,14.90
2022-11-09T09:42:20.360Z,15.00
2022-11-09T09:44:52.074Z,15.00
2022-11-09T09:47:27.787Z,15.00
2022-11-09T09:50:01.365Z,14.90
2022-11-09T09:53:10.680Z,14.90
2022-11-09T09:55:39.772Z,14.90
2022-11-09T09:58:13.350Z,14.80
2022-11-09T10:00:41.431Z,14.90
2022-11-09T10:03:15.784Z,14.90
2022-11-09T10:06:04.892Z,15.00
2022-11-09T10:08:35.220Z,15.00
2022-11-09T10:11:35.430Z,14.90
2022-11-09T10:14:11.993Z,14.90
2022-11-09T10:16:47.869Z,14.90
2022-11-09T10:19:34.085Z,14.90
2022-11-09T10:22:23.201Z,15.00
2022-11-09T10:25:37.688Z,15.10
2022-11-09T10:27:58.566Z,15.10
2022-11-09T10:30:29.213Z,15.10
2022-11-09T10:32:59.496Z,15.10
2022-11-09T10:35:34.468Z,15.10
2022-11-09T10:38:01.871Z,15.10
2022-11-09T10:40:38.639Z,15.00
2022-11-09T10:43:24.743Z,15.00
2022-11-09T10:46:10.521Z,15.00
2022-11-09T10:48:56.163Z,15.00
2022-11-09T10:51:43.411Z,15.00
2022-11-09T10:54:34.737Z,15.10
2022-11-09T10:57:21.896Z,15.30
2022-11-09T11:00:18.023Z,15.30
2022-11-09T11:03:30.237Z,15.50
2022-11-09T11:06:19.023Z,15.70
2022-11-09T11:09:05.051Z,15.60
2022-11-09T11:12:08.745Z,15.60
2022-11-09T11:14:54.626Z,15.70
2022-11-09T11:17:42.618Z,15.70
2022-11-09T11:20:29.134Z,15.90
2022-11-09T11:23:19.826Z,16.50
2022-11-09T11:26:06.362Z,17.10
2022-11-09T11:29:05.048Z,18.10
2022-11-09T11:31:50.884Z,18.90
2022-11-09T11:35:02.389Z,19.50
2022-11-09T11:38:00.087Z,18.60
2022-11-09T11:40:46.364Z,17.60
2022-11-09T11:43:55.577Z,17.70
2022-11-09T11:46:45.556Z,17.50
2022-11-09T11:49:46.947Z,17.30
2022-11-09T11:52:32.743Z,16.90
2022-11-09T11:55:39.498Z,17.10
2022-11-09T11:58:37.019Z,17.20
2022-11-09T12:01:23.039Z,16.70
2022-11-09T12:04:32.333Z,16.50
2022-11-09T12:07:21.159Z,16.40
2022-11-09T12:10:16.778Z,16.40
2022-11-09T12:13:11.958Z,16.50
2022-11-09T12:16:06.731Z,16.60
2022-11-09T12:18:59.822Z,16.30
2022-11-09T12:21:51.634Z,16.40
2022-11-09T12:24:38.010Z,16.50
2022-11-09T12:27:42.285Z,16.70
2022-11-09T12:30:34.261Z,16.50
2022-11-09T12:33:33.342Z,16.50
2022-11-09T12:36:20.406Z,16.50
2022-11-09T12:39:25.987Z,16.50
2022-11-09T12:42:26.949Z,16.50
2022-11-09T12:45:22.386Z,16.70
2022-11-09T12:48:18.169Z,16.50
2022-11-09T12:51:04.792Z,16.60
2022-11-09T12:53:51.072Z,16.40
2022-11-09T12:56:41.057Z,16.20
2022-11-09T12:59:27.131Z,16.20
2022-11-09T13:02:29.028Z,16.30
2022-11-09T13:05:32.309Z,16.40
2022-11-09T13:08:20.129Z,16.20
2022-11-09T13:11:25.942Z,16.20
2022-11-09T13:14:21.887Z,16.10
2022-11-09T13:17:20.854Z,16.20
2022-11-09T13:20:52.756Z,16.30
2022-11-09T13:23:59.037Z,16.40
2022-11-09T13:26:39.629Z,16.50
2022-11-09T13:29:29.450Z,16.50
2022-11-09T13:32:19.623Z,16.40
2022-11-09T13:35:30.482Z,16.30
2022-11-09T13:38:20.885Z,16.30
2022-11-09T13:41:32.255Z,16.30
2022-11-09T13:44:21.361Z,16.40
2022-11-09T13:47:20.378Z,16.40
2022-11-09T13:50:23.158Z,16.30
2022-11-09T13:53:30.813Z,16.20
2022-11-09T13:56:35.928Z,16.30
2022-11-09T13:59:31.587Z,16.20
2022-11-09T14:02:22.544Z,16.20
2022-11-09T14:05:24.982Z,16.10
2022-11-09T14:08:19.436Z,16.10
2022-11-09T14:11:13.101Z,16.20
2022-11-09T14:14:25.836Z,16.00
2022-11-09T14:17:49.752Z,15.90
2022-11-09T14:21:00.088Z,15.90
2022-11-09T14:23:48.886Z,15.80
2022-11-09T14:26:40.336Z,15.80
2022-11-09T14:29:30.202Z,15.80
2022-11-09T14:32:36.734Z,15.80
2022-11-09T14:35:32.810Z,15.70
2022-11-09T14:38:22.166Z,15.70
2022-11-09T14:41:26.464Z,15.70
2022-11-09T14:44:23.735Z,15.60
2022-11-09T14:47:16.729Z,15.50
2022-11-09T14:50:03.824Z,15.60
2022-11-09T14:52:51.345Z,15.60
2022-11-09T14:55:40.002Z,15.50
2022-11-09T14:58:28.414Z,15.50
2022-11-09T15:01:17.828Z,15.40
2022-11-09T15:04:12.497Z,15.40
2022-11-09T15:07:03.974Z,15.40
2022-11-09T15:10:06.437Z,15.50
2022-11-09T15:12:55.466Z,15.40
2022-11-09T15:15:41.935Z,15.40
2022-11-09T15:18:33.772Z,15.20
2022-11-09T15:21:40.601Z,15.20
2022-11-09T15:24:27.956Z,15.20
2022-11-09T15:27:28.916Z,15.20
2022-11-09T15:30:30.499Z,15.20
2022-11-09T15:33:19.651Z,15.20
2022-11-09T15:36:07.333Z,15.10
2022-11-09T15:38:59.231Z,15.10
2022-11-09T15:41:45.364Z,15.10
2022-11-09T15:44:31.465Z,15.10
2022-11-09T15:47:22.055Z,15.00
2022-11-09T15:50:16.653Z,14.90
2022-11-09T15:53:02.358Z,14.90
2022-11-09T15:55:48.252Z,14.80
2022-11-09T15:58:34.529Z,14.80
2022-11-09T16:01:20.709Z,14.70
2022-11-09T16:04:06.583Z,14.70
2022-11-09T16:06:52.491Z,14.70
2022-11-09T16:09:41.810Z,14.60
2022-11-09T16:12:27.848Z,14.60
2022-11-09T16:15:13.918Z,14.60
2022-11-09T16:18:00.328Z,14.50
2022-11-09T16:20:46.272Z,14.50
2022-11-09T16:23:32.167Z,14.50
2022-11-09T16:26:20.067Z,14.50
2022-11-09T16:29:05.985Z,14.50
2022-11-09T16:31:52.798Z,14.40
2022-11-09T16:34:38.950Z,14.40
2022-11-09T16:37:25.414Z,14.40
2022-11-09T16:40:13.238Z,14.40
2022-11-09T16:43:00.280Z,14.40
2022-11-09T16:45:48.742Z,14.30
2022-11-09T16:48:35.008Z,14.30
2022-11-09T16:51:21.092Z,14.30
2022-11-09T16:54:06.989Z,14.30
2022-11-09T16:56:54.927Z,14.30
2022-11-09T16:59:40.875Z,14.30
2022-11-09T17:02:27.242Z,14.30
2022-11-09T17:05:13.038Z,14.20
2022-11-09T17:07:59.067Z,14.10
2022-11-09T17:10:46.384Z,14.10
2022-11-09T17:13:32.343Z,14.00
2022-11-09T17:16:20.398Z,14.00
2022-11-09T17:19:06.417Z,14.00
2022-11-09T17:21:52.323Z,14.00
2022-11-09T17:24:38.564Z,14.00
2022-11-09T17:27:24.841Z,13.90
2022-11-09T17:30:11.839Z,13.90
2022-11-09T17:32:58.376Z,13.80
2022-11-09T17:35:45.838Z,13.80
2022-11-09T17:38:31.929Z,13.80
2022-11-09T17:41:19.087Z,13.70
2022-11-09T17:44:05.775Z,13.70
2022-11-09T17:46:51.994Z,13.60
2022-11-09T17:49:37.933Z,13.50
2022-11-09T17:52:24.160Z,13.50
2022-11-09T17:55:09.809Z,13.60
2022-11-09T17:57:55.805Z,13.50
2022-11-09T18:00:41.643Z,13.60
2022-11-09T18:03:31.461Z,13.60
2022-11-09T18:06:21.932Z,13.50
2022-11-09T18:09:39.773Z,13.40
2022-11-09T18:12:16.435Z,13.40
2022-11-09T18:15:03.269Z,13.40
2022-11-09T18:17:49.160Z,13.40
2022-11-09T18:20:37.312Z,13.40
2022-11-09T18:23:24.426Z,13.30
2022-11-09T18:26:10.701Z,13.40
2022-11-09T18:28:57.144Z,13.30
2022-11-09T18:31:42.766Z,13.20
2022-11-09T18:34:28.453Z,13.20
2022-11-09T18:37:14.767Z,13.20
2022-11-09T18:40:00.512Z,13.20
2022-11-09T18:42:46.311Z,13.20
2022-11-09T18:45:34.768Z,13.20
2022-11-09T18:48:21.108Z,13.20
2022-11-09T18:51:08.526Z,13.20
2022-11-09T18:53:54.582Z,13.10
2022-11-09T18:56:40.463Z,13.10
2022-11-09T18:59:26.313Z,13.10
2022-11-09T19:02:13.834Z,13.20
2022-11-09T19:04:59.473Z,13.20
2022-11-09T19:07:45.354Z,13.20
2022-11-09T19:10:31.250Z,13.20
2022-11-09T19:13:17.347Z,13.20
2022-11-09T19:16:03.755Z,13.20
2022-11-09T19:18:49.677Z,13.10
2022-11-09T19:21:35.889Z,13.10
2022-11-09T19:24:23.317Z,13.10
2022-11-09T19:27:09.283Z,13.10
2022-11-09T19:29:55.663Z,13.10
2022-11-09T19:32:41.640Z,13.00
2022-11-09T19:35:33.524Z,13.00
2022-11-09T19:38:20.161Z,13.10
2022-11-09T19:41:07.955Z,13.10
2022-11-09T19:43:55.612Z,13.10
2022-11-09T19:46:41.624Z,13.00
2022-11-09T19:49:27.311Z,13.00
2022-11-09T19:52:12.981Z,13.00
2022-11-09T19:54:59.346Z,13.00
2022-11-09T19:57:45.417Z,13.00
2022-11-09T20:00:31.154Z,13.00
2022-11-09T20:03:17.031Z,12.90
2022-11-09T20:06:03.915Z,12.90
2022-11-09T20:08:50.092Z,12.90
2022-11-09T20:11:54.980Z,12.90
2022-11-09T20:14:41.001Z,12.90
2022-11-09T20:17:26.708Z,12.80
2022-11-09T20:20:13.006Z,12.80
2022-11-09T20:23:00.467Z,12.80
2022-11-09T20:25:46.717Z,12.80
2022-11-09T20:28:32.399Z,12.80
2022-11-09T20:31:22.126Z,12.80
2022-11-09T20:34:08.265Z,12.80
2022-11-09T20:36:54.977Z,12.80
2022-11-09T20:39:41.507Z,12.80
2022-11-09T20:42:27.921Z,12.80
2022-11-09T20:45:15.129Z,12.70
2022-11-09T20:48:14.702Z,12.80
2022-11-09T20:51:08.834Z,12.70
2022-11-09T20:53:55.222Z,12.70
2022-11-09T20:56:41.139Z,12.70
2022-11-09T20:59:27.249Z,12.80
2022-11-09T21:02:13.905Z,12.80
2022-11-09T21:05:00.095Z,12.70
2022-11-09T21:07:46.161Z,12.70
2022-11-09T21:10:32.300Z,12.70
2022-11-09T21:13:18.056Z,12.70
2022-11-09T21:16:05.426Z,12.70
2022-11-09T21:18:51.161Z,12.70
2022-11-09T21:21:36.991Z,12.70
2022-11-09T21:24:41.730Z,12.60
2022-11-09T21:27:48.235Z,12.60
2022-11-09T21:30:34.302Z,12.60
2022-11-09T21:33:20.312Z,12.60
2022-11-09T21:36:07.003Z,12.60
2022-11-09T21:38:53.410Z,12.50
2022-11-09T21:41:39.810Z,12.50
2022-11-09T21:44:28.224Z,12.50
2022-11-09T21:47:13.811Z,12.50
2022-11-09T21:50:00.335Z,12.50
2022-11-09T21:52:46.041Z,12.50
2022-11-09T21:55:31.931Z,12.50
2022-11-09T21:58:17.543Z,12.40
2022-11-09T22:01:04.166Z,12.50
2022-11-09T22:03:50.376Z,12.40
2022-11-09T22:06:38.833Z,12.40
2022-11-09T22:09:25.409Z,12.40
2022-11-09T22:12:29.874Z,12.40
2022-11-09T22:15:34.528Z,12.40
2022-11-09T22:18:38.911Z,12.30
2022-11-09T22:21:24.864Z,12.30
2022-11-09T22:24:11.143Z,12.20
2022-11-09T22:26:57.422Z,12.10
2022-11-09T22:29:43.438Z,12.10
2022-11-09T22:32:29.264Z,12.10
2022-11-09T22:35:15.551Z,12.10
2022-11-09T22:38:02.675Z,12.00
2022-11-09T22:40:49.023Z,12.10
2022-11-09T22:43:39.533Z,12.00
2022-11-09T22:46:25.883Z,12.00
2022-11-09T22:49:11.603Z,12.00
2022-11-09T22:51:57.276Z,12.00
2022-11-09T22:54:43.147Z,12.00
2022-11-09T22:57:29.133Z,12.00
2022-11-09T23:00:15.868Z,12.00
2022-11-09T23:03:01.813Z,12.00
2022-11-09T23:05:50.722Z,12.00
2022-11-09T23:08:38.101Z,12.00
2022-11-09T23:11:25.031Z,12.00
2022-11-09T23:14:12.266Z,12.00
2022-11-09T23:16:58.193Z,11.90
2022-11-09T23:19:44.387Z,11.90
2022-11-09T23:22:30.520Z,11.90
2022-11-09T23:25:34.880Z,11.90
2022-11-09T23:28:20.717Z,12.00
2022-11-09T23:31:08.833Z,12.10
2022-11-09T23:33:55.420Z,12.00
2022-11-09T23:36:41.116Z,12.10
2022-11-09T23:39:26.861Z,12.10
2022-11-09T23:42:12.804Z,12.10
2022-11-09T23:44:58.665Z,12.10
2022-11-09T23:47:44.247Z,12.00
2022-11-09T23:50:30.483Z,12.00
2022-11-09T23:53:16.461Z,12.00
2022-11-09T23:56:06.825Z,11.90
2022-11-09T23:58:52.585Z,11.80
